createdAt,value
2022-09-20T00:01:24.016Z,4.57
2022-09-20T00:03:55.296Z,4.20
2022-09-20T00:06:23.716Z,4.35
2022-09-20T00:08:50.410Z,4.55
2022-09-20T00:11:24.966Z,4.25
2022-09-20T00:13:53.107Z,4.07
2022-09-20T00:16:25.433Z,4.63
2022-09-20T00:18:53.119Z,4.57
2022-09-20T00:21:21.503Z,3.67
2022-09-20T00:23:48.104Z,4.28
2022-09-20T00:26:14.846Z,4.20
2022-09-20T00:28:41.845Z,3.75
2022-09-20T00:31:08.464Z,4.00
2022-09-20T00:33:53.646Z,3.47
2022-09-20T00:36:20.240Z,4.05
2022-09-20T00:38:46.866Z,4.00
2022-09-20T00:41:13.525Z,3.50
2022-09-20T00:43:41.809Z,3.50
2022-09-20T00:46:36.615Z,3.45
2022-09-20T00:49:26.234Z,3.45
2022-09-20T00:51:55.842Z,3.97
2022-09-20T00:54:22.508Z,4.20
2022-09-20T00:56:49.250Z,3.13
2022-09-20T00:59:21.920Z,3.28
2022-09-20T01:02:15.426Z,3.00
2022-09-20T01:04:42.604Z,3.30
2022-09-20T01:07:09.800Z,4.05
2022-09-20T01:09:36.454Z,4.20
2022-09-20T01:12:08.447Z,4.10
2022-09-20T01:14:35.014Z,3.80
2022-09-20T01:17:04.119Z,3.45
2022-09-20T01:19:42.785Z,3.95
2022-09-20T01:22:16.152Z,3.67
2022-09-20T01:25:03.316Z,3.72
2022-09-20T01:27:33.514Z,4.13
2022-09-20T01:30:03.858Z,3.83
2022-09-20T01:32:53.631Z,3.55
2022-09-20T01:35:21.383Z,3.72
2022-09-20T01:38:11.505Z,3.67
2022-09-20T01:40:59.232Z,3.67
2022-09-20T01:43:47.373Z,4.00
2022-09-20T01:46:32.525Z,4.05
2022-09-20T01:49:28.496Z,3.70
2022-09-20T01:52:16.665Z,3.50
2022-09-20T01:55:15.957Z,4.13
2022-09-20T01:58:35.025Z,4.40
2022-09-20T02:01:32.422Z,3.97
2022-09-20T02:04:28.940Z,4.50
2022-09-20T02:07:01.778Z,4.35
2022-09-20T02:09:46.942Z,4.22
2022-09-20T02:12:43.894Z,4.45
2022-09-20T02:16:07.891Z,4.35
2022-09-20T02:18:43.168Z,4.20
2022-09-20T02:21:16.845Z,3.90
2022-09-20T02:24:10.644Z,3.85
2022-09-20T02:27:02.582Z,4.07
2022-09-20T02:29:47.863Z,4.18
2022-09-20T02:32:51.947Z,3.90
2022-09-20T02:35:39.317Z,4.55
2022-09-20T02:38:43.195Z,4.30
2022-09-20T02:41:09.652Z,5.43
2022-09-20T02:43:51.549Z,4.38
2022-09-20T02:46:26.322Z,4.07
2022-09-20T02:49:08.789Z,5.03
2022-09-20T02:51:43.955Z,4.18
2022-09-20T02:54:13.862Z,4.50
2022-09-20T02:57:10.801Z,4.00
2022-09-20T02:59:49.400Z,4.40
2022-09-20T03:02:45.396Z,4.25
2022-09-20T03:05:36.316Z,3.38
2022-09-20T03:08:32.762Z,3.55
2022-09-20T03:11:18.062Z,4.30
2022-09-20T03:13:53.721Z,4.00
2022-09-20T03:16:47.584Z,4.07
2022-09-20T03:19:34.047Z,4.40
2022-09-20T03:22:00.994Z,4.35
2022-09-20T03:24:52.555Z,3.88
2022-09-20T03:27:41.543Z,5.13
2022-09-20T03:30:40.334Z,4.03
2022-09-20T03:33:18.458Z,3.95
2022-09-20T03:36:04.177Z,3.90
2022-09-20T03:38:55.225Z,4.72
2022-09-20T03:41:34.248Z,4.05
2022-09-20T03:44:34.500Z,4.20
2022-09-20T03:47:08.946Z,4.20
2022-09-20T03:50:09.886Z,5.10
2022-09-20T03:53:00.872Z,4.30
2022-09-20T03:56:00.893Z,4.05
2022-09-20T03:58:46.021Z,3.92
2022-09-20T04:01:31.083Z,4.20
2022-09-20T04:04:09.403Z,3.92
2022-09-20T04:06:35.881Z,4.03
2022-09-20T04:09:14.712Z,4.25
2022-09-20T04:11:46.330Z,3.88
2022-09-20T04:14:34.656Z,3.83
2022-09-20T04:17:06.328Z,5.00
2022-09-20T04:19:46.256Z,4.10
2022-09-20T04:22:12.900Z,4.53
2022-09-20T04:24:56.632Z,5.22
2022-09-20T04:27:29.398Z,4.93
2022-09-20T04:30:15.041Z,4.90
2022-09-20T04:32:44.599Z,4.82
2022-09-20T04:35:44.406Z,5.40
2022-09-20T04:38:13.197Z,4.43
2022-09-20T04:41:12.098Z,4.80
2022-09-20T04:44:21.906Z,4.53
2022-09-20T04:47:08.250Z,4.75
2022-09-20T04:49:59.496Z,4.35
2022-09-20T04:52:41.306Z,5.45
2022-09-20T04:55:26.962Z,4.82
2022-09-20T04:58:19.428Z,5.00
2022-09-20T05:01:07.054Z,5.50
2022-09-20T05:03:45.665Z,4.32
2022-09-20T05:06:36.853Z,4.82
2022-09-20T05:09:13.731Z,4.85
2022-09-20T05:12:02.495Z,4.43
2022-09-20T05:14:40.989Z,5.90
2022-09-20T05:17:14.800Z,5.43
2022-09-20T05:20:02.706Z,5.00
2022-09-20T05:22:53.820Z,4.80
2022-09-20T05:25:48.292Z,5.32
2022-09-20T05:28:28.718Z,5.60
2022-09-20T05:31:28.623Z,6.75
2022-09-20T05:34:45.976Z,6.28
2022-09-20T05:37:22.577Z,6.07
2022-09-20T05:40:18.270Z,5.78
2022-09-20T05:43:07.497Z,5.72
2022-09-20T05:45:40.072Z,6.32
2022-09-20T05:48:15.055Z,7.85
2022-09-20T05:53:49.817Z,7.60
2022-09-20T05:56:34.414Z,7.70
2022-09-20T05:59:16.870Z,7.60
2022-09-20T06:02:01.625Z,7.50
2022-09-20T06:05:15.005Z,7.30
2022-09-20T06:08:03.834Z,7.28
2022-09-20T06:10:54.662Z,6.72
2022-09-20T06:13:36.398Z,6.53
2022-09-20T06:16:07.888Z,6.00
2022-09-20T06:19:03.170Z,5.70
2022-09-20T06:21:55.395Z,5.80
2022-09-20T06:24:44.760Z,5.80
2022-09-20T06:27:14.468Z,6.47
2022-09-20T06:29:43.742Z,5.85
2022-09-20T06:32:10.366Z,5.50
2022-09-20T06:34:36.974Z,6.07
2022-09-20T06:37:34.276Z,5.30
2022-09-20T06:40:46.961Z,6.35
2022-09-20T06:43:14.598Z,5.25
2022-09-20T06:45:42.634Z,5.03
2022-09-20T06:48:13.148Z,4.80
2022-09-20T06:50:40.037Z,4.60
2022-09-20T06:53:07.149Z,3.95
2022-09-20T06:55:37.506Z,4.00
2022-09-20T06:58:04.214Z,4.38
2022-09-20T07:00:30.868Z,4.45
2022-09-20T07:02:57.443Z,4.80
2022-09-20T07:05:26.609Z,3.95
2022-09-20T07:07:57.682Z,3.95
2022-09-20T07:10:25.438Z,3.80
2022-09-20T07:12:52.006Z,3.80
2022-09-20T07:15:22.867Z,3.67
2022-09-20T07:17:49.471Z,4.00
2022-09-20T07:20:47.124Z,4.05
2022-09-20T07:23:15.780Z,4.28
2022-09-20T07:25:42.339Z,5.00
2022-09-20T07:28:08.901Z,4.80
2022-09-20T07:30:35.463Z,4.60
2022-09-20T07:33:02.696Z,4.82
2022-09-20T07:35:29.941Z,5.45
2022-09-20T07:37:57.892Z,5.18
2022-09-20T07:40:26.885Z,6.20
2022-09-20T07:42:56.219Z,6.70
2022-09-20T07:45:23.961Z,6.18
2022-09-20T07:47:50.592Z,5.57
2022-09-20T07:50:17.322Z,6.10
2022-09-20T07:52:43.902Z,6.45
2022-09-20T07:55:10.518Z,6.90
2022-09-20T07:57:37.784Z,6.30
2022-09-20T08:00:07.958Z,6.53
2022-09-20T08:02:34.580Z,6.75
2022-09-20T08:05:01.331Z,7.40
2022-09-20T08:07:28.892Z,6.90
2022-09-20T08:09:55.492Z,8.73
2022-09-20T08:15:11.870Z,8.05
2022-09-20T08:17:40.389Z,8.38
2022-09-20T08:20:07.851Z,8.18
2022-09-20T08:22:34.886Z,7.20
2022-09-20T08:25:01.450Z,7.32
2022-09-20T08:27:28.135Z,7.30
2022-09-20T08:29:57.311Z,6.65
2022-09-20T08:32:23.874Z,6.68
2022-09-20T08:34:50.431Z,6.80
2022-09-20T08:37:17.155Z,6.50
2022-09-20T08:39:59.537Z,6.18
2022-09-20T08:42:37.847Z,5.88
2022-09-20T08:45:11.378Z,6.75
2022-09-20T08:47:58.504Z,5.22
2022-09-20T08:50:25.826Z,5.45
2022-09-20T08:53:00.146Z,5.93
2022-09-20T08:55:36.486Z,6.07
2022-09-20T08:58:08.193Z,5.60
2022-09-20T09:00:35.931Z,5.70
2022-09-20T09:03:07.454Z,5.57
2022-09-20T09:05:39.088Z,5.22
2022-09-20T09:08:17.274Z,5.30
2022-09-20T09:10:54.232Z,5.03
2022-09-20T09:13:40.028Z,4.75
2022-09-20T09:16:13.177Z,5.43
2022-09-20T09:18:41.397Z,5.25
2022-09-20T09:21:10.457Z,4.70
2022-09-20T09:24:31.652Z,5.63
2022-09-20T09:27:07.650Z,5.63
2022-09-20T09:29:35.054Z,6.50
2022-09-20T09:32:19.318Z,5.32
2022-09-20T09:34:45.957Z,6.40
2022-09-20T09:37:27.813Z,6.00
2022-09-20T09:40:16.784Z,5.03
2022-09-20T09:42:57.604Z,3.80
2022-09-20T09:45:40.957Z,4.28
2022-09-20T09:48:27.890Z,4.40
2022-09-20T09:51:09.737Z,4.03
2022-09-20T09:53:36.724Z,3.45
2022-09-20T09:56:14.314Z,3.90
2022-09-20T09:59:02.221Z,5.20
2022-09-20T10:02:06.636Z,3.55
2022-09-20T10:04:37.448Z,1.60
2022-09-20T10:07:14.266Z,1.30
2022-09-20T10:09:46.962Z,1.10
2022-09-20T10:12:20.786Z,1.20
2022-09-20T10:14:56.931Z,1.10
2022-09-20T10:17:51.057Z,1.13
2022-09-20T10:20:28.201Z,1.25
2022-09-20T10:24:01.465Z,1.05
2022-09-20T10:26:44.192Z,1.25
2022-09-20T10:29:15.811Z,1.17
2022-09-20T10:31:54.983Z,1.05
2022-09-20T10:34:30.506Z,1.48
2022-09-20T10:36:58.316Z,1.15
2022-09-20T10:39:33.875Z,1.40
2022-09-20T10:42:40.910Z,1.30
2022-09-20T10:45:55.974Z,1.27
2022-09-20T10:48:31.814Z,2.35
2022-09-20T10:51:21.466Z,1.70
2022-09-20T10:54:09.848Z,1.80
2022-09-20T10:56:37.802Z,1.38
2022-09-20T10:59:40.062Z,1.30
2022-09-20T11:02:31.338Z,1.40
2022-09-20T11:05:27.281Z,1.23
2022-09-20T11:08:10.541Z,1.48
2022-09-20T11:10:43.052Z,1.30
2022-09-20T11:13:29.843Z,0.98
2022-09-20T11:16:10.332Z,0.88
2022-09-20T11:18:41.524Z,1.25
2022-09-20T11:21:23.251Z,1.20
2022-09-20T11:23:55.189Z,1.08
2022-09-20T11:26:27.535Z,1.10
2022-09-20T11:28:56.144Z,1.13
2022-09-20T11:31:26.935Z,1.10
2022-09-20T11:34:03.569Z,1.10
2022-09-20T11:36:58.977Z,0.90
2022-09-20T11:39:40.275Z,0.80
2022-09-20T11:42:06.920Z,1.00
2022-09-20T11:44:33.528Z,0.90
2022-09-20T11:47:52.872Z,1.05
2022-09-20T11:50:36.314Z,0.90
2022-09-20T11:53:27.573Z,0.95
2022-09-20T11:56:06.321Z,0.85
2022-09-20T11:58:46.621Z,0.90
2022-09-20T12:01:13.286Z,0.80
2022-09-20T12:03:40.164Z,0.98
2022-09-20T12:06:08.417Z,0.88
2022-09-20T12:08:39.782Z,0.90
2022-09-20T12:11:13.769Z,0.80
2022-09-20T12:13:41.883Z,0.70
2022-09-20T12:16:16.048Z,0.80
2022-09-20T12:18:54.719Z,1.10
2022-09-20T12:21:21.872Z,1.00
2022-09-20T12:23:57.537Z,1.00
2022-09-20T12:26:27.092Z,1.17
2022-09-20T12:28:54.251Z,0.90
2022-09-20T12:31:31.780Z,1.27
2022-09-20T12:33:59.419Z,1.02
2022-09-20T12:36:36.398Z,1.10
2022-09-20T12:39:12.044Z,0.93
2022-09-20T12:42:01.407Z,0.80
2022-09-20T12:44:38.018Z,1.08
2022-09-20T12:47:10.594Z,1.20
2022-09-20T12:50:05.885Z,1.38
2022-09-20T12:52:50.707Z,1.00
2022-09-20T12:55:30.952Z,1.30
2022-09-20T12:58:02.208Z,1.77
2022-09-20T13:00:34.495Z,1.33
2022-09-20T13:03:01.157Z,1.75
2022-09-20T13:05:32.210Z,1.40
2022-09-20T13:08:22.426Z,1.50
2022-09-20T13:11:02.231Z,1.58
2022-09-20T13:13:32.120Z,1.85
2022-09-20T13:15:58.931Z,1.70
2022-09-20T13:18:26.572Z,1.60
2022-09-20T13:20:54.043Z,1.33
2022-09-20T13:23:24.879Z,1.70
2022-09-20T13:25:51.539Z,1.83
2022-09-20T13:28:49.669Z,1.60
2022-09-20T13:31:25.941Z,1.48
2022-09-20T13:33:52.631Z,1.33
2022-09-20T13:36:27.634Z,1.33
2022-09-20T13:41:22.978Z,1.63
2022-09-20T13:43:50.155Z,1.80
2022-09-20T13:46:24.594Z,1.60
2022-09-20T13:49:22.197Z,1.73
2022-09-20T13:51:49.141Z,1.30
2022-09-20T13:54:28.941Z,1.20
2022-09-20T13:56:56.859Z,1.40
2022-09-20T13:59:23.642Z,1.33
2022-09-20T14:01:51.960Z,1.10
2022-09-20T14:04:22.867Z,1.27
2022-09-20T14:06:52.848Z,1.25
2022-09-20T14:09:28.783Z,1.20
2022-09-20T14:11:56.080Z,0.98
2022-09-20T14:14:23.376Z,1.20
2022-09-20T14:16:49.933Z,1.45
2022-09-20T14:19:18.548Z,1.30
2022-09-20T14:21:45.112Z,1.77
2022-09-20T14:24:14.637Z,1.50
2022-09-20T14:26:42.255Z,1.60
2022-09-20T14:29:39.951Z,1.52
2022-09-20T14:32:17.662Z,1.83
2022-09-20T14:34:51.621Z,1.90
2022-09-20T14:37:32.551Z,2.10
2022-09-20T14:40:16.056Z,2.50
2022-09-20T14:42:44.070Z,1.90
2022-09-20T14:45:40.331Z,1.80
2022-09-20T14:48:26.954Z,3.60
2022-09-20T14:51:26.103Z,2.72
2022-09-20T14:54:13.956Z,2.05
2022-09-20T14:56:49.371Z,2.80
2022-09-20T14:59:18.994Z,2.08
2022-09-20T15:02:03.534Z,1.80
2022-09-20T15:04:31.618Z,1.93
2022-09-20T15:07:01.435Z,1.83
2022-09-20T15:09:28.009Z,2.90
2022-09-20T15:12:01.352Z,2.60
2022-09-20T15:14:27.970Z,2.40
2022-09-20T15:16:54.574Z,2.80
2022-09-20T15:19:21.180Z,3.33
2022-09-20T15:21:51.846Z,3.80
2022-09-20T15:24:19.072Z,2.42
2022-09-20T15:26:45.722Z,2.95
2022-09-20T15:29:17.221Z,4.10
2022-09-20T15:31:45.027Z,3.53
2022-09-20T15:34:12.963Z,2.22
2022-09-20T15:36:40.510Z,2.03
2022-09-20T15:39:07.431Z,1.75
2022-09-20T15:41:34.711Z,1.88
2022-09-20T15:44:02.661Z,1.88
2022-09-20T15:46:29.315Z,1.95
2022-09-20T15:48:56.443Z,1.90
2022-09-20T15:51:23.121Z,1.90
2022-09-20T15:53:58.452Z,1.90
2022-09-20T15:56:27.482Z,1.85
2022-09-20T15:59:01.517Z,2.00
2022-09-20T16:01:41.863Z,6.03
2022-09-20T16:04:08.783Z,3.80
2022-09-20T16:06:35.581Z,2.72
2022-09-20T16:09:02.406Z,2.75
2022-09-20T16:11:29.103Z,1.77
2022-09-20T16:13:56.809Z,2.58
2022-09-20T16:16:23.717Z,4.65
2022-09-20T16:19:09.007Z,3.78
2022-09-20T16:24:03.403Z,2.65
2022-09-20T16:26:31.679Z,4.10
2022-09-20T16:28:58.419Z,2.90
2022-09-20T16:31:28.624Z,6.20
2022-09-20T16:33:55.251Z,6.07
2022-09-20T16:36:27.303Z,4.00
2022-09-20T16:38:55.925Z,6.82
2022-09-20T16:41:23.614Z,7.63
2022-09-20T16:43:52.240Z,5.72
2022-09-20T16:46:22.479Z,6.50
2022-09-20T16:48:53.761Z,4.50
2022-09-20T16:51:22.157Z,4.05
2022-09-20T16:53:48.922Z,5.20
2022-09-20T16:56:34.637Z,4.22
2022-09-20T16:59:02.044Z,4.53
2022-09-20T17:01:28.894Z,5.47
2022-09-20T17:03:55.556Z,5.60
2022-09-20T17:06:22.188Z,5.50
2022-09-20T17:08:54.562Z,5.55
2022-09-20T17:11:26.434Z,7.80
2022-09-20T17:13:53.863Z,9.38
2022-09-20T17:16:25.609Z,20.63
2022-09-20T17:18:58.203Z,13.55
2022-09-20T17:21:25.257Z,6.13
2022-09-20T17:23:55.231Z,4.70
2022-09-20T17:26:32.053Z,4.70
2022-09-20T17:28:59.245Z,3.97
2022-09-20T17:31:34.114Z,4.00
2022-09-20T17:34:02.238Z,4.30
2022-09-20T17:36:30.162Z,4.57
2022-09-20T17:39:02.970Z,4.80
2022-09-20T17:41:30.367Z,4.18
2022-09-20T17:43:58.689Z,4.35
2022-09-20T17:46:26.425Z,7.05
2022-09-20T17:48:55.616Z,5.85
2022-09-20T17:51:29.870Z,5.18
2022-09-20T17:53:56.503Z,4.53
2022-09-20T17:56:28.686Z,4.88
2022-09-20T17:58:56.885Z,5.78
2022-09-20T18:01:23.757Z,4.72
2022-09-20T18:03:51.504Z,4.25
2022-09-20T18:06:29.651Z,5.85
2022-09-20T18:09:03.641Z,5.03
2022-09-20T18:11:35.170Z,10.35
2022-09-20T18:14:02.294Z,7.32
2022-09-20T18:16:30.841Z,7.10
2022-09-20T18:18:59.345Z,5.82
2022-09-20T18:21:26.832Z,6.95
2022-09-20T18:23:53.452Z,5.80
2022-09-20T18:26:24.439Z,6.13
2022-09-20T18:29:18.299Z,6.25
2022-09-20T18:31:49.801Z,9.48
2022-09-20T18:34:23.976Z,10.55
2022-09-20T18:36:54.781Z,11.70
2022-09-20T18:39:28.507Z,9.65
2022-09-20T18:41:55.241Z,9.02
2022-09-20T18:44:22.305Z,8.65
2022-09-20T18:46:49.045Z,7.70
2022-09-20T18:49:17.073Z,8.27
2022-09-20T18:51:44.107Z,7.72
2022-09-20T18:54:11.115Z,7.88
2022-09-20T18:56:41.876Z,7.45
2022-09-20T18:59:15.672Z,9.18
2022-09-20T19:01:48.263Z,7.82
2022-09-20T19:04:39.650Z,7.32
2022-09-20T19:07:12.241Z,6.60
2022-09-20T19:09:56.957Z,7.97
2022-09-20T19:12:26.189Z,9.75
2022-09-20T19:15:30.530Z,9.90
2022-09-20T19:18:22.930Z,10.45
2022-09-20T19:21:14.971Z,9.93
2022-09-20T19:23:45.644Z,9.35
2022-09-20T19:26:29.084Z,8.27
2022-09-20T19:29:00.155Z,9.15
2022-09-20T19:31:31.878Z,9.38
2022-09-20T19:34:00.409Z,10.07
2022-09-20T19:36:54.827Z,9.38
2022-09-20T19:39:33.290Z,8.20
2022-09-20T19:42:36.301Z,9.63
2022-09-20T19:45:06.958Z,8.48
2022-09-20T19:47:45.751Z,10.57
2022-09-20T19:50:38.904Z,12.43
2022-09-20T19:53:05.802Z,9.73
2022-09-20T19:55:33.019Z,9.93
2022-09-20T19:57:59.946Z,10.68
2022-09-20T20:00:27.908Z,10.77
2022-09-20T20:02:55.385Z,8.90
2022-09-20T20:05:25.735Z,8.80
2022-09-20T20:08:14.031Z,8.32
2022-09-20T20:10:57.209Z,9.13
2022-09-20T20:14:07.138Z,6.18
2022-09-20T20:16:54.958Z,7.18
2022-09-20T20:19:42.887Z,7.03
2022-09-20T20:22:37.695Z,6.20
2022-09-20T20:25:04.745Z,5.63
2022-09-20T20:27:32.566Z,5.88
2022-09-20T20:29:59.141Z,5.68
2022-09-20T20:32:25.917Z,6.85
2022-09-20T20:34:52.472Z,6.68
2022-09-20T20:37:19.066Z,6.22
2022-09-20T20:39:45.859Z,7.95
2022-09-20T20:42:12.829Z,10.38
2022-09-20T20:44:40.091Z,8.95
2022-09-20T20:47:06.871Z,9.23
2022-09-20T20:49:33.414Z,7.97
2022-09-20T20:52:04.748Z,8.32
2022-09-20T20:54:32.277Z,8.55
2022-09-20T20:56:59.480Z,8.85
2022-09-20T20:59:26.448Z,7.85
2022-09-20T21:01:53.090Z,11.45
2022-09-20T21:04:20.033Z,8.98
2022-09-20T21:06:46.708Z,15.80
2022-09-20T21:09:13.567Z,13.40
2022-09-20T21:11:44.227Z,10.98
2022-09-20T21:14:11.960Z,9.95
2022-09-20T21:16:42.512Z,10.27
2022-09-20T21:19:10.304Z,12.80
2022-09-20T21:21:38.767Z,12.13
2022-09-20T21:24:09.567Z,12.10
2022-09-20T21:26:37.030Z,10.80
2022-09-20T21:29:08.125Z,12.60
2022-09-20T21:31:36.331Z,9.90
2022-09-20T21:34:09.438Z,8.80
2022-09-20T21:36:38.009Z,8.95
2022-09-20T21:39:05.178Z,8.30
2022-09-20T21:41:32.986Z,10.82
2022-09-20T21:44:02.236Z,11.40
2022-09-20T21:46:37.163Z,11.18
2022-09-20T21:51:31.318Z,10.82
2022-09-20T21:53:59.459Z,15.73
2022-09-20T21:56:27.546Z,12.52
2022-09-20T21:58:54.169Z,12.82
2022-09-20T22:01:28.082Z,11.02
2022-09-20T22:03:57.449Z,10.05
2022-09-20T22:06:25.973Z,14.18
2022-09-20T22:08:53.326Z,13.45
2022-09-20T22:11:20.865Z,11.13
2022-09-20T22:13:48.650Z,11.73
2022-09-20T22:16:17.481Z,11.35
2022-09-20T22:18:44.143Z,11.27
2022-09-20T22:21:19.007Z,12.82
2022-09-20T22:23:47.999Z,12.57
2022-09-20T22:26:24.590Z,12.38
2022-09-20T22:28:51.781Z,13.32
2022-09-20T22:31:20.242Z,14.32
2022-09-20T22:33:48.389Z,14.32
2022-09-20T22:36:16.610Z,13.93
2022-09-20T22:38:43.664Z,12.25
2022-09-20T22:41:10.499Z,14.70
2022-09-20T22:43:37.374Z,10.98
2022-09-20T22:46:09.054Z,10.88
2022-09-20T22:48:35.880Z,14.05
2022-09-20T22:51:19.289Z,12.52
2022-09-20T22:53:46.299Z,11.48
2022-09-20T22:56:17.774Z,10.75
2022-09-20T22:58:46.066Z,9.20
2022-09-20T23:01:23.025Z,9.43
2022-09-20T23:04:00.304Z,10.63
2022-09-20T23:06:28.635Z,11.15
2022-09-20T23:08:59.708Z,10.00
2022-09-20T23:11:26.607Z,12.10
2022-09-20T23:13:55.002Z,8.98
2022-09-20T23:16:23.450Z,13.52
2022-09-20T23:18:50.791Z,10.48
2022-09-20T23:21:17.492Z,10.30
2022-09-20T23:23:44.750Z,10.18
2022-09-20T23:26:12.899Z,10.65
2022-09-20T23:28:41.154Z,9.70
2022-09-20T23:31:09.388Z,8.93
2022-09-20T23:33:36.029Z,10.40
2022-09-20T23:36:09.314Z,9.25
2022-09-20T23:38:38.940Z,9.10
2022-09-20T23:41:06.733Z,9.75
2022-09-20T23:43:33.937Z,8.93
2022-09-20T23:46:00.538Z,11.70
2022-09-20T23:48:27.157Z,10.52
2022-09-20T23:50:53.780Z,10.73
2022-09-20T23:53:20.459Z,10.68
2022-09-20T23:55:47.026Z,9.68
2022-09-20T23:58:13.731Z,9.10
